sensor_id;sensor_type;location;lat;lon;timestamp;pressure;altitude;pressure_sealevel;temperature;humidity
21588;BME280;10956;48.878;13.316;2022-07-10T00:01:03;94644.63;;;15.39;100.00
21588;BME280;10956;48.878;13.316;2022-07-10T00:03:30;94638.19;;;15.45;100.00
21588;BME280;10956;48.878;13.316;2022-07-10T00:05:55;94639.03;;;15.40;100.00
21588;BME280;10956;48.878;13.316;2022-07-10T00:08:21;94641.41;;;15.42;100.00
21588;BME280;10956;48.878;13.316;2022-07-10T00:10:47;94640.34;;;15.43;100.00
21588;BME280;10956;48.878;13.316;2022-07-10T00:13:12;94643.06;;;15.38;100.00
21588;BME280;10956;48.878;13.316;2022-07-10T00:15:38;94649.00;;;15.30;100.00
21588;BME280;10956;48.878;13.316;2022-07-10T00:18:03;94638.16;;;15.26;100.00
21588;BME280;10956;48.878;13.316;2022-07-10T00:20:29;94631.47;;;15.29;100.00
21588;BME280;10956;48.878;13.316;2022-07-10T00:22:54;94619.22;;;15.33;100.00
21588;BME280;10956;48.878;13.316;2022-07-10T00:25:20;94616.84;;;15.31;100.00
21588;BME280;10956;48.878;13.316;2022-07-10T00:27:45;94621.44;;;15.26;100.00
21588;BME280;10956;48.878;13.316;2022-07-10T00:30:11;94621.78;;;15.19;100.00
21588;BME280;10956;48.878;13.316;2022-07-10T00:32:37;94617.25;;;15.19;100.00
21588;BME280;10956;48.878;13.316;2022-07-10T00:35:03;94610.38;;;15.18;100.00
21588;BME280;10956;48.878;13.316;2022-07-10T00:37:29;94623.91;;;15.17;100.00
21588;BME280;10956;48.878;13.316;2022-07-10T00:39:54;94624.72;;;15.17;100.00
21588;BME280;10956;48.878;13.316;2022-07-10T00:42:20;94621.50;;;15.21;100.00
21588;BME280;10956;48.878;13.316;2022-07-10T00:44:46;94615.09;;;15.22;100.00
21588;BME280;10956;48.878;13.316;2022-07-10T00:47:12;94612.72;;;15.20;100.00
21588;BME280;10956;48.878;13.316;2022-07-10T00:49:39;94603.97;;;15.19;100.00
21588;BME280;10956;48.878;13.316;2022-07-10T00:52:10;94607.78;;;15.13;100.00
21588;BME280;10956;48.878;13.316;2022-07-10T00:54:40;94610.72;;;15.12;100.00
21588;BME280;10956;48.878;13.316;2022-07-10T00:57:07;94607.31;;;15.06;100.00
21588;BME280;10956;48.878;13.316;2022-07-10T00:59:33;94608.97;;;15.02;100.00
21588;BME280;10956;48.878;13.316;2022-07-10T01:02:00;94605.84;;;14.95;100.00
21588;BME280;10956;48.878;13.316;2022-07-10T01:04:26;94599.25;;;14.93;100.00
21588;BME280;10956;48.878;13.316;2022-07-10T01:06:51;94594.28;;;14.86;100.00
21588;BME280;10956;48.878;13.316;2022-07-10T01:09:17;94587.91;;;14.87;100.00
21588;BME280;10956;48.878;13.316;2022-07-10T01:11:43;94595.91;;;14.82;100.00
21588;BME280;10956;48.878;13.316;2022-07-10T01:14:09;94590.72;;;14.72;100.00
21588;BME280;10956;48.878;13.316;2022-07-10T01:16:34;94588.91;;;14.67;100.00
21588;BME280;10956;48.878;13.316;2022-07-10T01:19:00;94591.72;;;14.52;100.00
21588;BME280;10956;48.878;13.316;2022-07-10T01:21:32;94580.88;;;14.48;100.00
21588;BME280;10956;48.878;13.316;2022-07-10T01:23:58;94588.31;;;14.46;100.00
21588;BME280;10956;48.878;13.316;2022-07-10T01:26:24;94587.75;;;14.49;100.00
21588;BME280;10956;48.878;13.316;2022-07-10T01:28:50;94584.28;;;14.54;100.00
21588;BME280;10956;48.878;13.316;2022-07-10T01:31:20;94584.56;;;14.52;100.00
21588;BME280;10956;48.878;13.316;2022-07-10T01:33:49;94579.75;;;14.54;100.00
21588;BME280;10956;48.878;13.316;2022-07-10T01:36:16;94580.22;;;14.62;100.00
21588;BME280;10956;48.878;13.316;2022-07-10T01:38:42;94573.31;;;14.61;100.00
21588;BME280;10956;48.878;13.316;2022-07-10T01:41:07;94564.88;;;14.59;100.00
21588;BME280;10956;48.878;13.316;2022-07-10T01:43:36;94562.72;;;14.61;100.00
21588;BME280;10956;48.878;13.316;2022-07-10T01:46:02;94563.00;;;14.59;100.00
21588;BME280;10956;48.878;13.316;2022-07-10T01:48:28;94562.16;;;14.64;100.00
21588;BME280;10956;48.878;13.316;2022-07-10T01:50:54;94565.31;;;14.66;100.00
21588;BME280;10956;48.878;13.316;2022-07-10T01:53:19;94553.69;;;14.62;100.00
21588;BME280;10956;48.878;13.316;2022-07-10T01:55:45;94556.84;;;14.64;100.00
21588;BME280;10956;48.878;13.316;2022-07-10T01:58:10;94559.78;;;14.62;100.00
21588;BME280;10956;48.878;13.316;2022-07-10T02:00:35;94559.00;;;14.62;100.00
21588;BME280;10956;48.878;13.316;2022-07-10T02:03:01;94556.97;;;14.53;100.00
21588;BME280;10956;48.878;13.316;2022-07-10T02:05:45;94558.53;;;14.54;100.00
21588;BME280;10956;48.878;13.316;2022-07-10T02:08:10;94568.63;;;14.52;100.00
21588;BME280;10956;48.878;13.316;2022-07-10T02:10:35;94570.28;;;14.48;100.00
21588;BME280;10956;48.878;13.316;2022-07-10T02:13:01;94564.97;;;14.48;100.00
21588;BME280;10956;48.878;13.316;2022-07-10T02:15:26;94552.22;;;14.50;100.00
21588;BME280;10956;48.878;13.316;2022-07-10T02:17:52;94554.59;;;14.52;100.00
21588;BME280;10956;48.878;13.316;2022-07-10T02:20:17;94563.38;;;14.47;100.00
21588;BME280;10956;48.878;13.316;2022-07-10T02:22:42;94561.00;;;14.46;100.00
21588;BME280;10956;48.878;13.316;2022-07-10T02:25:08;94571.84;;;14.49;100.00
21588;BME280;10956;48.878;13.316;2022-07-10T02:27:33;94556.97;;;14.53;100.00
21588;BME280;10956;48.878;13.316;2022-07-10T02:29:59;94564.97;;;14.48;100.00
21588;BME280;10956;48.878;13.316;2022-07-10T02:32:24;94566.63;;;14.39;100.00
21588;BME280;10956;48.878;13.316;2022-07-10T02:34:49;94563.47;;;14.37;100.00
21588;BME280;10956;48.878;13.316;2022-07-10T02:37:15;94571.00;;;14.25;100.00
21588;BME280;10956;48.878;13.316;2022-07-10T02:39:40;94558.81;;;14.24;100.00
21588;BME280;10956;48.878;13.316;2022-07-10T02:42:06;94562.53;;;14.23;100.00
21588;BME280;10956;48.878;13.316;2022-07-10T02:44:31;94563.41;;;14.13;100.00
21588;BME280;10956;48.878;13.316;2022-07-10T02:46:57;94562.94;;;14.06;100.00
21588;BME280;10956;48.878;13.316;2022-07-10T02:49:22;94560.34;;;14.01;100.00
21588;BME280;10956;48.878;13.316;2022-07-10T02:51:48;94561.88;;;14.07;100.00
21588;BME280;10956;48.878;13.316;2022-07-10T02:54:13;94558.97;;;14.04;100.00
21588;BME280;10956;48.878;13.316;2022-07-10T02:56:39;94560.66;;;13.95;100.00
21588;BME280;10956;48.878;13.316;2022-07-10T02:59:04;94557.50;;;13.93;100.00
21588;BME280;10956;48.878;13.316;2022-07-10T03:01:31;94549.56;;;13.87;100.00
21588;BME280;10956;48.878;13.316;2022-07-10T03:03:57;94558.03;;;13.89;100.00
21588;BME280;10956;48.878;13.316;2022-07-10T03:06:22;94549.03;;;13.90;100.00
21588;BME280;10956;48.878;13.316;2022-07-10T03:08:48;94554.28;;;13.96;100.00
21588;BME280;10956;48.878;13.316;2022-07-10T03:11:14;94558.50;;;13.97;100.00
21588;BME280;10956;48.878;13.316;2022-07-10T03:13:39;94551.63;;;13.96;100.00
21588;BME280;10956;48.878;13.316;2022-07-10T03:16:05;94546.34;;;13.96;100.00
21588;BME280;10956;48.878;13.316;2022-07-10T03:18:30;94543.72;;;13.90;100.00
21588;BME280;10956;48.878;13.316;2022-07-10T03:20:56;94555.97;;;13.81;100.00
21588;BME280;10956;48.878;13.316;2022-07-10T03:23:21;94559.69;;;13.80;100.00
21588;BME280;10956;48.878;13.316;2022-07-10T03:25:47;94554.41;;;13.80;100.00
21588;BME280;10956;48.878;13.316;2022-07-10T03:28:12;94558.66;;;13.76;100.00
21588;BME280;10956;48.878;13.316;2022-07-10T03:30:38;94550.69;;;13.81;100.00
21588;BME280;10956;48.878;13.316;2022-07-10T03:33:03;94550.69;;;13.81;100.00
21588;BME280;10956;48.878;13.316;2022-07-10T03:35:29;94548.00;;;13.86;100.00
21588;BME280;10956;48.878;13.316;2022-07-10T03:37:56;94549.03;;;13.90;100.00
21588;BME280;10956;48.878;13.316;2022-07-10T03:40:22;94542.94;;;13.90;100.00
21588;BME280;10956;48.878;13.316;2022-07-10T03:42:47;94547.91;;;13.97;100.00
21588;BME280;10956;48.878;13.316;2022-07-10T03:45:13;94552.09;;;14.03;100.00
21588;BME280;10956;48.878;13.316;2022-07-10T03:47:38;94547.31;;;14.05;100.00
21588;BME280;10956;48.878;13.316;2022-07-10T03:50:04;94555.19;;;14.15;100.00
21588;BME280;10956;48.878;13.316;2022-07-10T03:52:30;94550.38;;;14.17;100.00
21588;BME280;10956;48.878;13.316;2022-07-10T03:54:55;94542.41;;;14.22;100.00
21588;BME280;10956;48.878;13.316;2022-07-10T03:57:20;94546.13;;;14.21;100.00
21588;BME280;10956;48.878;13.316;2022-07-10T04:00:04;94538.63;;;14.28;100.00
21588;BME280;10956;48.878;13.316;2022-07-10T04:02:30;94546.75;;;14.37;100.00
21588;BME280;10956;48.878;13.316;2022-07-10T04:04:55;94536.38;;;14.40;100.00
21588;BME280;10956;48.878;13.316;2022-07-10T04:07:21;94539.09;;;14.35;100.00
21588;BME280;10956;48.878;13.316;2022-07-10T04:09:46;94541.16;;;14.43;100.00
21588;BME280;10956;48.878;13.316;2022-07-10T04:12:12;94536.88;;;14.47;100.00
21588;BME280;10956;48.878;13.316;2022-07-10T04:14:37;94534.56;;;14.65;100.00
21588;BME280;10956;48.878;13.316;2022-07-10T04:17:03;94532.94;;;14.69;100.00
21588;BME280;10956;48.878;13.316;2022-07-10T04:19:28;94538.97;;;14.74;100.00
21588;BME280;10956;48.878;13.316;2022-07-10T04:21:54;94536.75;;;14.81;100.00
21588;BME280;10956;48.878;13.316;2022-07-10T04:24:19;94535.84;;;14.91;100.00
21588;BME280;10956;48.878;13.316;2022-07-10T04:26:44;94535.28;;;14.94;100.00
21588;BME280;10956;48.878;13.316;2022-07-10T04:29:10;94532.56;;;14.99;100.00
21588;BME280;10956;48.878;13.316;2022-07-10T04:31:36;94543.06;;;15.09;100.00
21588;BME280;10956;48.878;13.316;2022-07-10T04:34:01;94533.22;;;15.10;100.00
21588;BME280;10956;48.878;13.316;2022-07-10T04:36:27;94533.72;;;15.12;100.00
21588;BME280;10956;48.878;13.316;2022-07-10T04:38:53;94537.63;;;15.19;100.00
21588;BME280;10956;48.878;13.316;2022-07-10T04:41:18;94536.13;;;15.32;100.00
21588;BME280;10956;48.878;13.316;2022-07-10T04:43:44;94545.16;;;15.31;100.00
21588;BME280;10956;48.878;13.316;2022-07-10T04:46:10;94539.22;;;15.39;100.00
21588;BME280;10956;48.878;13.316;2022-07-10T04:48:35;94542.06;;;15.43;100.00
21588;BME280;10956;48.878;13.316;2022-07-10T04:51:00;94537.13;;;15.36;100.00
21588;BME280;10956;48.878;13.316;2022-07-10T04:53:26;94544.88;;;15.33;100.00
21588;BME280;10956;48.878;13.316;2022-07-10T04:55:51;94538.28;;;15.30;100.00
21588;BME280;10956;48.878;13.316;2022-07-10T04:58:17;94546.38;;;15.39;100.00
21588;BME280;10956;48.878;13.316;2022-07-10T05:00:42;94548.19;;;15.43;100.00
21588;BME280;10956;48.878;13.316;2022-07-10T05:03:07;94541.50;;;15.46;100.00
21588;BME280;10956;48.878;13.316;2022-07-10T05:05:33;94542.44;;;15.55;100.00
21588;BME280;10956;48.878;13.316;2022-07-10T05:07:58;94541.81;;;15.63;100.00
21588;BME280;10956;48.878;13.316;2022-07-10T05:10:24;94545.03;;;15.79;100.00
21588;BME280;10956;48.878;13.316;2022-07-10T05:12:49;94539.94;;;15.82;100.00
21588;BME280;10956;48.878;13.316;2022-07-10T05:15:15;94529.63;;;15.95;100.00
21588;BME280;10956;48.878;13.316;2022-07-10T05:17:40;94546.38;;;15.95;100.00
21588;BME280;10956;48.878;13.316;2022-07-10T05:20:06;94537.59;;;15.95;100.00
21588;BME280;10956;48.878;13.316;2022-07-10T05:22:32;94549.47;;;15.83;100.00
21588;BME280;10956;48.878;13.316;2022-07-10T05:24:57;94553.94;;;15.88;100.00
21588;BME280;10956;48.878;13.316;2022-07-10T05:27:22;94558.09;;;15.94;100.00
21588;BME280;10956;48.878;13.316;2022-07-10T05:29:48;94563.81;;;16.01;100.00
21588;BME280;10956;48.878;13.316;2022-07-10T05:32:14;94565.44;;;16.16;100.00
21588;BME280;10956;48.878;13.316;2022-07-10T05:34:40;94559.59;;;16.46;100.00
21588;BME280;10956;48.878;13.316;2022-07-10T05:37:05;94560.66;;;16.78;99.52
21588;BME280;10956;48.878;13.316;2022-07-10T05:39:32;94553.75;;;17.04;97.53
21588;BME280;10956;48.878;13.316;2022-07-10T05:41:57;94552.47;;;17.16;95.88
21588;BME280;10956;48.878;13.316;2022-07-10T05:44:24;94552.38;;;17.07;95.03
21588;BME280;10956;48.878;13.316;2022-07-10T05:46:49;94555.13;;;17.16;95.15
21588;BME280;10956;48.878;13.316;2022-07-10T05:49:15;94556.97;;;17.29;93.22
21588;BME280;10956;48.878;13.316;2022-07-10T05:51:41;94553.44;;;17.20;92.09
21588;BME280;10956;48.878;13.316;2022-07-10T05:54:06;94557.88;;;17.24;91.35
21588;BME280;10956;48.878;13.316;2022-07-10T05:56:31;94555.47;;;17.36;91.28
21588;BME280;10956;48.878;13.316;2022-07-10T05:58:57;94550.63;;;17.52;89.13
21588;BME280;10956;48.878;13.316;2022-07-10T06:01:23;94563.13;;;17.65;87.54
21588;BME280;10956;48.878;13.316;2022-07-10T06:03:49;94558.06;;;17.78;87.41
21588;BME280;10956;48.878;13.316;2022-07-10T06:06:14;94559.78;;;17.96;85.57
21588;BME280;10956;48.878;13.316;2022-07-10T06:08:43;94555.31;;;18.05;85.71
21588;BME280;10956;48.878;13.316;2022-07-10T06:11:09;94551.28;;;18.16;85.37
21588;BME280;10956;48.878;13.316;2022-07-10T06:13:36;94566.56;;;18.02;85.29
21588;BME280;10956;48.878;13.316;2022-07-10T06:16:01;94558.13;;;17.86;86.15
21588;BME280;10956;48.878;13.316;2022-07-10T06:18:27;94556.97;;;17.79;85.56
21588;BME280;10956;48.878;13.316;2022-07-10T06:20:52;94564.97;;;17.79;85.46
21588;BME280;10956;48.878;13.316;2022-07-10T06:23:17;94568.38;;;17.70;84.40
21588;BME280;10956;48.878;13.316;2022-07-10T06:25:43;94572.00;;;17.74;84.38
21588;BME280;10956;48.878;13.316;2022-07-10T06:28:08;94570.44;;;17.60;83.05
21588;BME280;10956;48.878;13.316;2022-07-10T06:30:33;94568.75;;;17.78;82.48
21588;BME280;10956;48.878;13.316;2022-07-10T06:32:59;94569.72;;;18.04;82.11
21588;BME280;10956;48.878;13.316;2022-07-10T06:35:24;94573.66;;;17.84;79.94
21588;BME280;10956;48.878;13.316;2022-07-10T06:37:50;94566.59;;;17.66;81.23
21588;BME280;10956;48.878;13.316;2022-07-10T06:40:17;94578.91;;;17.75;81.23
21588;BME280;10956;48.878;13.316;2022-07-10T06:42:45;94571.16;;;17.88;79.32
21588;BME280;10956;48.878;13.316;2022-07-10T06:45:11;94576.88;;;17.95;79.33
21588;BME280;10956;48.878;13.316;2022-07-10T06:47:36;94586.34;;;18.23;79.48
21588;BME280;10956;48.878;13.316;2022-07-10T06:50:20;94585.47;;;18.36;78.62
21588;BME280;10956;48.878;13.316;2022-07-10T06:52:47;94585.78;;;17.90;78.73
21588;BME280;10956;48.878;13.316;2022-07-10T06:55:12;94592.34;;;17.70;79.28
21588;BME280;10956;48.878;13.316;2022-07-10T06:57:38;94589.38;;;17.58;80.36
21588;BME280;10956;48.878;13.316;2022-07-10T07:00:04;94597.69;;;17.43;80.50
21588;BME280;10956;48.878;13.316;2022-07-10T07:02:30;94598.41;;;17.07;82.61
21588;BME280;10956;48.878;13.316;2022-07-10T07:04:55;94604.03;;;16.92;82.49
21588;BME280;10956;48.878;13.316;2022-07-10T07:07:21;94592.41;;;17.16;82.24
21588;BME280;10956;48.878;13.316;2022-07-10T07:09:46;94590.78;;;17.42;81.25
21588;BME280;10956;48.878;13.316;2022-07-10T07:12:15;94589.19;;;17.68;81.17
21588;BME280;10956;48.878;13.316;2022-07-10T07:14:40;94592.03;;;18.08;79.82
21588;BME280;10956;48.878;13.316;2022-07-10T07:17:05;94600.50;;;18.32;78.54
21588;BME280;10956;48.878;13.316;2022-07-10T07:19:33;94591.53;;;18.51;77.88
21588;BME280;10956;48.878;13.316;2022-07-10T07:22:28;94593.09;;;18.74;74.99
21588;BME280;10956;48.878;13.316;2022-07-10T07:25:12;94599.13;;;18.88;74.53
21588;BME280;10956;48.878;13.316;2022-07-10T07:27:38;94593.50;;;18.98;74.75
21588;BME280;10956;48.878;13.316;2022-07-10T07:30:12;94590.72;;;19.03;73.64
21588;BME280;10956;48.878;13.316;2022-07-10T07:32:40;94589.34;;;18.75;72.84
21588;BME280;10956;48.878;13.316;2022-07-10T07:35:07;94587.31;;;18.27;74.86
21588;BME280;10956;48.878;13.316;2022-07-10T07:37:46;94588.88;;;18.28;75.93
21588;BME280;10956;48.878;13.316;2022-07-10T07:40:14;94596.09;;;18.28;75.44
21588;BME280;10956;48.878;13.316;2022-07-10T07:42:41;94590.22;;;18.17;74.85
21588;BME280;10956;48.878;13.316;2022-07-10T07:45:07;94583.34;;;18.02;75.67
21588;BME280;10956;48.878;13.316;2022-07-10T07:50:18;94587.88;;;17.80;76.32
21588;BME280;10956;48.878;13.316;2022-07-10T07:52:44;94597.03;;;17.87;76.80
21588;BME280;10956;48.878;13.316;2022-07-10T07:55:11;94591.47;;;17.97;76.63
21588;BME280;10956;48.878;13.316;2022-07-10T07:57:37;94591.97;;;18.22;76.45
21588;BME280;10956;48.878;13.316;2022-07-10T08:00:05;94579.47;;;18.84;75.80
21588;BME280;10956;48.878;13.316;2022-07-10T08:02:31;94589.91;;;19.03;74.70
21588;BME280;10956;48.878;13.316;2022-07-10T08:04:57;94586.50;;;19.11;74.59
21588;BME280;10956;48.878;13.316;2022-07-10T08:07:22;94586.38;;;19.25;74.23
21588;BME280;10956;48.878;13.316;2022-07-10T08:09:47;94585.63;;;19.33;73.43
21588;BME280;10956;48.878;13.316;2022-07-10T08:12:14;94584.97;;;19.27;72.78
21588;BME280;10956;48.878;13.316;2022-07-10T08:14:39;94584.19;;;19.27;73.36
21588;BME280;10956;48.878;13.316;2022-07-10T08:17:05;94585.00;;;19.36;72.34
21588;BME280;10956;48.878;13.316;2022-07-10T08:19:30;94588.47;;;19.45;71.91
21588;BME280;10956;48.878;13.316;2022-07-10T08:21:55;94592.25;;;19.44;71.89
21588;BME280;10956;48.878;13.316;2022-07-10T08:24:21;94594.25;;;19.30;70.71
21588;BME280;10956;48.878;13.316;2022-07-10T08:26:46;94598.66;;;18.86;69.20
21588;BME280;10956;48.878;13.316;2022-07-10T08:29:12;94592.69;;;18.36;71.34
21588;BME280;10956;48.878;13.316;2022-07-10T08:31:37;94599.72;;;18.10;72.28
21588;BME280;10956;48.878;13.316;2022-07-10T08:34:04;94605.72;;;17.93;74.44
21588;BME280;10956;48.878;13.316;2022-07-10T08:36:30;94615.06;;;18.04;72.75
21588;BME280;10956;48.878;13.316;2022-07-10T08:38:55;94613.06;;;18.10;70.11
21588;BME280;10956;48.878;13.316;2022-07-10T08:41:25;94615.50;;;18.20;68.61
21588;BME280;10956;48.878;13.316;2022-07-10T08:43:51;94619.44;;;18.22;67.51
21588;BME280;10956;48.878;13.316;2022-07-10T08:46:17;94632.03;;;18.30;68.78
21588;BME280;10956;48.878;13.316;2022-07-10T08:48:47;94627.75;;;18.43;66.15
21588;BME280;10956;48.878;13.316;2022-07-10T08:54:00;94625.50;;;18.36;68.10
21588;BME280;10956;48.878;13.316;2022-07-10T08:56:26;94627.31;;;18.50;68.65
21588;BME280;10956;48.878;13.316;2022-07-10T08:58:52;94634.97;;;18.43;67.58
21588;BME280;10956;48.878;13.316;2022-07-10T09:01:19;94636.53;;;18.44;67.23
21588;BME280;10956;48.878;13.316;2022-07-10T09:03:48;94631.19;;;18.44;68.48
21588;BME280;10956;48.878;13.316;2022-07-10T09:06:14;94634.06;;;18.69;67.53
21588;BME280;10956;48.878;13.316;2022-07-10T09:08:57;94629.25;;;18.80;65.13
21588;BME280;10956;48.878;13.316;2022-07-10T09:11:23;94624.16;;;18.70;62.98
21588;BME280;10956;48.878;13.316;2022-07-10T09:13:58;94620.78;;;18.33;63.33
21588;BME280;10956;48.878;13.316;2022-07-10T09:16:29;94616.13;;;17.81;63.82
21588;BME280;10956;48.878;13.316;2022-07-10T09:18:55;94607.97;;;17.36;64.81
21588;BME280;10956;48.878;13.316;2022-07-10T09:21:22;94609.75;;;17.13;67.11
21588;BME280;10956;48.878;13.316;2022-07-10T09:23:48;94623.16;;;17.22;67.78
21588;BME280;10956;48.878;13.316;2022-07-10T09:26:14;94623.97;;;17.08;66.45
21588;BME280;10956;48.878;13.316;2022-07-10T09:28:39;94618.84;;;16.98;65.63
21588;BME280;10956;48.878;13.316;2022-07-10T09:31:05;94614.59;;;16.97;65.46
21588;BME280;10956;48.878;13.316;2022-07-10T09:33:32;94628.31;;;17.04;65.55
21588;BME280;10956;48.878;13.316;2022-07-10T09:36:09;94617.66;;;17.04;67.73
21588;BME280;10956;48.878;13.316;2022-07-10T09:46:15;94618.81;;;17.53;62.46
21588;BME280;10956;48.878;13.316;2022-07-10T09:48:41;94619.19;;;17.60;63.28
21588;BME280;10956;48.878;13.316;2022-07-10T09:51:08;94625.91;;;17.71;63.87
21588;BME280;10956;48.878;13.316;2022-07-10T09:53:41;94633.94;;;17.94;62.05
21588;BME280;10956;48.878;13.316;2022-07-10T09:56:11;94638.94;;;18.09;60.99
21588;BME280;10956;48.878;13.316;2022-07-10T09:58:38;94635.69;;;18.34;61.74
21588;BME280;10956;48.878;13.316;2022-07-10T10:01:05;94633.13;;;18.52;61.80
21588;BME280;10956;48.878;13.316;2022-07-10T10:03:33;94628.91;;;18.73;61.06
21588;BME280;10956;48.878;13.316;2022-07-10T10:06:20;94641.84;;;18.88;60.06
21588;BME280;10956;48.878;13.316;2022-07-10T10:09:10;94635.22;;;19.17;59.64
21588;BME280;10956;48.878;13.316;2022-07-10T10:11:37;94632.78;;;18.98;59.08
21588;BME280;10956;48.878;13.316;2022-07-10T10:14:06;94635.22;;;19.17;59.34
21588;BME280;10956;48.878;13.316;2022-07-10T10:16:33;94623.16;;;19.28;58.20
21588;BME280;10956;48.878;13.316;2022-07-10T10:18:59;94623.69;;;19.47;58.68
21588;BME280;10956;48.878;13.316;2022-07-10T10:21:44;94636.19;;;19.60;58.74
21588;BME280;10956;48.878;13.316;2022-07-10T10:24:10;94636.19;;;19.60;57.95
21588;BME280;10956;48.878;13.316;2022-07-10T10:26:36;94636.50;;;19.67;58.13
21588;BME280;10956;48.878;13.316;2022-07-10T10:29:03;94634.75;;;19.54;58.03
21588;BME280;10956;48.878;13.316;2022-07-10T10:31:29;94636.56;;;19.45;57.70
21588;BME280;10956;48.878;13.316;2022-07-10T10:33:56;94643.44;;;19.29;58.73
21588;BME280;10956;48.878;13.316;2022-07-10T10:39:09;94633.25;;;19.40;59.27
21588;BME280;10956;48.878;13.316;2022-07-10T10:41:42;94636.28;;;19.47;58.96
21588;BME280;10956;48.878;13.316;2022-07-10T10:49:16;94629.63;;;20.10;58.21
21588;BME280;10956;48.878;13.316;2022-07-10T10:51:58;94641.91;;;20.37;58.49
21588;BME280;10956;48.878;13.316;2022-07-10T10:54:29;94637.84;;;20.48;58.25
21588;BME280;10956;48.878;13.316;2022-07-10T10:57:14;94635.13;;;20.05;58.00
21588;BME280;10956;48.878;13.316;2022-07-10T10:59:47;94630.97;;;19.55;59.70
21588;BME280;10956;48.878;13.316;2022-07-10T11:02:30;94626.53;;;19.02;61.25
21588;BME280;10956;48.878;13.316;2022-07-10T11:10:28;94626.56;;;18.80;61.18
21588;BME280;10956;48.878;13.316;2022-07-10T11:13:10;94627.97;;;18.78;59.16
21588;BME280;10956;48.878;13.316;2022-07-10T11:15:42;94615.16;;;18.88;61.48
21588;BME280;10956;48.878;13.316;2022-07-10T11:18:11;94622.69;;;18.86;63.16
21588;BME280;10956;48.878;13.316;2022-07-10T11:20:44;94619.78;;;18.74;61.68
21588;BME280;10956;48.878;13.316;2022-07-10T11:25:41;94617.34;;;18.86;61.33
21588;BME280;10956;48.878;13.316;2022-07-10T11:28:21;94624.28;;;18.65;59.34
21588;BME280;10956;48.878;13.316;2022-07-10T11:30:53;94625.78;;;18.57;60.72
21588;BME280;10956;48.878;13.316;2022-07-10T11:33:20;94623.13;;;18.57;61.50
21588;BME280;10956;48.878;13.316;2022-07-10T11:35:47;94609.56;;;18.67;61.37
21588;BME280;10956;48.878;13.316;2022-07-10T11:38:18;94600.13;;;18.70;63.76
21588;BME280;10956;48.878;13.316;2022-07-10T11:40:44;94585.84;;;18.66;63.54
21588;BME280;10956;48.878;13.316;2022-07-10T11:43:09;94618.50;;;18.04;63.28
21588;BME280;10956;48.878;13.316;2022-07-10T11:45:39;94605.38;;;17.72;63.95
21588;BME280;10956;48.878;13.316;2022-07-10T11:48:05;94605.00;;;17.51;64.31
21588;BME280;10956;48.878;13.316;2022-07-10T11:50:36;94603.22;;;17.47;64.40
21588;BME280;10956;48.878;13.316;2022-07-10T11:53:03;94601.63;;;17.73;65.34
21588;BME280;10956;48.878;13.316;2022-07-10T11:55:29;94589.84;;;18.10;64.68
21588;BME280;10956;48.878;13.316;2022-07-10T11:57:55;94600.94;;;18.48;64.28
21588;BME280;10956;48.878;13.316;2022-07-10T12:00:25;94615.41;;;18.78;61.92
21588;BME280;10956;48.878;13.316;2022-07-10T12:02:52;94587.94;;;18.78;60.75
21588;BME280;10956;48.878;13.316;2022-07-10T12:05:37;94604.66;;;18.61;61.39
21588;BME280;10956;48.878;13.316;2022-07-10T12:08:03;94609.25;;;18.02;57.57
21588;BME280;10956;48.878;13.316;2022-07-10T12:10:30;94606.06;;;17.78;58.71
21588;BME280;10956;48.878;13.316;2022-07-10T12:13:10;94600.22;;;17.75;60.74
21588;BME280;10956;48.878;13.316;2022-07-10T12:15:43;94590.50;;;17.93;60.04
21588;BME280;10956;48.878;13.316;2022-07-10T12:18:21;94588.56;;;18.30;60.58
21588;BME280;10956;48.878;13.316;2022-07-10T12:20:48;94591.59;;;18.90;59.16
21588;BME280;10956;48.878;13.316;2022-07-10T12:23:15;94593.63;;;19.33;58.89
21588;BME280;10956;48.878;13.316;2022-07-10T12:25:46;94590.41;;;19.62;57.51
21588;BME280;10956;48.878;13.316;2022-07-10T12:28:13;94591.50;;;19.52;56.59
21588;BME280;10956;48.878;13.316;2022-07-10T12:30:41;94593.47;;;19.29;56.43
21588;BME280;10956;48.878;13.316;2022-07-10T12:33:08;94580.56;;;19.23;59.64
21588;BME280;10956;48.878;13.316;2022-07-10T12:35:49;94593.59;;;19.16;59.79
21588;BME280;10956;48.878;13.316;2022-07-10T12:38:23;94602.06;;;19.18;57.88
21588;BME280;10956;48.878;13.316;2022-07-10T12:40:50;94598.31;;;19.27;58.26
21588;BME280;10956;48.878;13.316;2022-07-10T12:43:26;94596.88;;;19.70;57.47
21588;BME280;10956;48.878;13.316;2022-07-10T12:46:15;94599.72;;;19.99;55.99
21588;BME280;10956;48.878;13.316;2022-07-10T12:49:06;94604.28;;;19.90;54.32
21588;BME280;10956;48.878;13.316;2022-07-10T12:51:45;94615.09;;;19.59;51.82
21588;BME280;10956;48.878;13.316;2022-07-10T12:54:31;94614.81;;;19.21;51.88
21588;BME280;10956;48.878;13.316;2022-07-10T12:56:57;94620.66;;;18.92;53.33
21588;BME280;10956;48.878;13.316;2022-07-10T12:59:23;94628.00;;;19.17;54.12
21588;BME280;10956;48.878;13.316;2022-07-10T13:01:49;94620.91;;;19.52;54.09
21588;BME280;10956;48.878;13.316;2022-07-10T13:04:14;94618.59;;;19.94;54.50
21588;BME280;10956;48.878;13.316;2022-07-10T13:06:41;94618.94;;;20.18;54.70
21588;BME280;10956;48.878;13.316;2022-07-10T13:11:44;94621.13;;;20.25;54.69
21588;BME280;10956;48.878;13.316;2022-07-10T13:14:09;94628.69;;;20.14;54.81
21588;BME280;10956;48.878;13.316;2022-07-10T13:16:35;94627.44;;;20.20;53.85
21588;BME280;10956;48.878;13.316;2022-07-10T13:19:00;94611.22;;;20.25;53.52